createdAt,value
2023-03-17T00:01:44.726Z,99.90
2023-03-17T00:04:13.414Z,99.90
2023-03-17T00:06:42.598Z,99.90
2023-03-17T00:09:14.658Z,99.90
2023-03-17T00:11:42.565Z,99.90
2023-03-17T00:14:10.719Z,99.90
2023-03-17T00:16:40.544Z,99.90
2023-03-17T00:19:08.376Z,99.90
2023-03-17T00:21:36.646Z,99.90
2023-03-17T00:24:07.232Z,99.90
2023-03-17T00:26:34.946Z,99.90
2023-03-17T00:29:02.669Z,99.90
2023-03-17T00:31:31.359Z,99.90
2023-03-17T00:33:59.136Z,99.90
2023-03-17T00:36:29.450Z,99.90
2023-03-17T00:38:57.430Z,99.90
2023-03-17T00:41:27.166Z,99.90
2023-03-17T00:43:55.385Z,99.90
2023-03-17T00:46:26.708Z,99.90
2023-03-17T00:48:54.507Z,99.90
2023-03-17T00:51:23.326Z,99.90
2023-03-17T00:53:51.202Z,99.90
2023-03-17T00:56:20.991Z,99.90
2023-03-17T00:58:50.240Z,99.90
2023-03-17T01:01:18.697Z,99.90
2023-03-17T01:03:46.803Z,99.90
2023-03-17T01:06:15.955Z,99.90
2023-03-17T01:08:44.763Z,99.90
2023-03-17T01:11:16.349Z,99.90
2023-03-17T01:13:44.048Z,99.90
2023-03-17T01:16:13.534Z,99.90
2023-03-17T01:18:41.356Z,99.90
2023-03-17T01:21:09.844Z,99.90
2023-03-17T01:23:37.969Z,99.90
2023-03-17T01:26:06.546Z,99.90
2023-03-17T01:28:35.142Z,99.90
2023-03-17T01:31:03.428Z,99.90
2023-03-17T01:33:33.604Z,99.90
2023-03-17T01:36:01.518Z,99.90
2023-03-17T01:38:29.708Z,99.90
2023-03-17T01:40:57.437Z,99.90
2023-03-17T01:43:27.632Z,99.90
2023-03-17T01:46:27.502Z,99.90
2023-03-17T01:49:09.430Z,99.90
2023-03-17T01:51:43.080Z,99.90
2023-03-17T01:54:14.185Z,99.90
2023-03-17T01:56:44.763Z,99.90
2023-03-17T01:59:24.701Z,99.90
2023-03-17T02:01:58.372Z,99.90
2023-03-17T02:04:27.713Z,99.90
2023-03-17T02:06:58.449Z,99.90
2023-03-17T02:09:28.601Z,99.90
2023-03-17T02:11:57.561Z,99.90
2023-03-17T02:14:25.569Z,99.90
2023-03-17T02:16:54.555Z,99.90
2023-03-17T02:19:22.330Z,99.90
2023-03-17T02:21:53.745Z,99.90
2023-03-17T02:24:27.495Z,99.90
2023-03-17T02:26:59.424Z,99.90
2023-03-17T02:29:27.695Z,99.90
2023-03-17T02:31:55.614Z,99.90
2023-03-17T02:34:23.368Z,99.90
2023-03-17T02:36:52.525Z,99.90
2023-03-17T02:39:20.766Z,99.90
2023-03-17T02:41:48.609Z,99.90
2023-03-17T02:44:16.517Z,99.90
2023-03-17T02:46:44.356Z,99.90
2023-03-17T02:49:13.009Z,99.90
2023-03-17T02:51:40.885Z,99.90
2023-03-17T02:54:10.237Z,99.90
2023-03-17T02:56:38.317Z,99.90
2023-03-17T02:59:07.226Z,99.90
2023-03-17T03:01:35.104Z,99.90
2023-03-17T03:04:03.521Z,99.90
2023-03-17T03:06:31.670Z,99.90
2023-03-17T03:08:59.529Z,99.90
2023-03-17T03:11:29.374Z,99.90
2023-03-17T03:13:57.179Z,99.90
2023-03-17T03:16:24.971Z,99.90
2023-03-17T03:18:52.718Z,99.90
2023-03-17T03:21:20.426Z,99.90
2023-03-17T03:23:48.174Z,99.90
2023-03-17T03:26:16.335Z,99.90
2023-03-17T03:28:45.816Z,99.90
2023-03-17T03:31:14.058Z,99.90
2023-03-17T03:33:42.242Z,99.90
2023-03-17T03:36:11.336Z,99.90
2023-03-17T03:38:39.105Z,99.90
2023-03-17T03:41:07.319Z,99.90
2023-03-17T03:43:35.290Z,99.90
2023-03-17T03:46:04.777Z,99.90
2023-03-17T03:48:32.907Z,99.90
2023-03-17T03:51:02.111Z,99.90
2023-03-17T03:53:30.594Z,99.90
2023-03-17T03:55:58.379Z,99.90
2023-03-17T03:58:26.169Z,99.90
2023-03-17T04:00:53.962Z,99.90
2023-03-17T04:03:23.010Z,99.90
2023-03-17T04:05:50.762Z,99.90
2023-03-17T04:08:18.490Z,99.90
2023-03-17T04:10:46.203Z,99.90
2023-03-17T04:13:14.048Z,99.90
2023-03-17T04:15:42.480Z,99.90
2023-03-17T04:18:10.195Z,99.90
2023-03-17T04:20:39.495Z,99.90
2023-03-17T04:23:07.929Z,99.90
2023-03-17T04:25:35.731Z,99.90
2023-03-17T04:28:03.511Z,99.90
2023-03-17T04:30:31.536Z,99.90
2023-03-17T04:32:59.618Z,99.90
2023-03-17T04:35:27.965Z,99.90
2023-03-17T04:37:57.025Z,99.90
2023-03-17T04:40:24.822Z,99.90
2023-03-17T04:42:52.578Z,99.90
2023-03-17T04:45:20.959Z,99.90
2023-03-17T04:47:48.734Z,99.90
2023-03-17T04:50:17.895Z,99.90
2023-03-17T04:52:45.686Z,99.90
2023-03-17T04:55:14.710Z,99.90
2023-03-17T04:57:42.462Z,99.90
2023-03-17T05:00:12.771Z,99.90
2023-03-17T05:02:41.194Z,99.90
2023-03-17T05:05:09.939Z,99.90
2023-03-17T05:07:37.748Z,99.90
2023-03-17T05:10:06.580Z,99.90
2023-03-17T05:12:35.820Z,99.90
2023-03-17T05:15:05.395Z,99.90
2023-03-17T05:17:33.141Z,99.90
2023-03-17T05:20:00.889Z,99.90
2023-03-17T05:22:28.650Z,99.90
2023-03-17T05:24:56.456Z,99.90
2023-03-17T05:27:24.457Z,99.90
2023-03-17T05:29:53.557Z,99.90
2023-03-17T05:32:21.415Z,99.90
2023-03-17T05:34:49.956Z,99.90
2023-03-17T05:37:17.736Z,99.90
2023-03-17T05:39:45.438Z,99.90
2023-03-17T05:42:13.165Z,99.90
2023-03-17T05:44:40.910Z,99.90
2023-03-17T05:47:10.280Z,99.90
2023-03-17T05:49:38.063Z,99.90
2023-03-17T05:52:05.878Z,99.90
2023-03-17T05:54:33.580Z,99.90
2023-03-17T05:57:01.335Z,99.90
2023-03-17T05:59:29.103Z,99.90
2023-03-17T06:01:57.175Z,99.90
2023-03-17T06:04:26.449Z,99.90
2023-03-17T06:06:54.172Z,99.90
2023-03-17T06:09:21.954Z,99.90
2023-03-17T06:11:49.676Z,99.90
2023-03-17T06:14:17.400Z,99.90
2023-03-17T06:16:45.161Z,99.90
2023-03-17T06:19:13.153Z,99.90
2023-03-17T06:21:42.271Z,99.90
2023-03-17T06:24:10.764Z,99.90
2023-03-17T06:26:38.604Z,99.90
2023-03-17T06:29:09.104Z,99.90
2023-03-17T06:31:37.148Z,99.90
2023-03-17T06:34:05.634Z,99.90
2023-03-17T06:36:33.751Z,99.90
2023-03-17T06:39:02.794Z,99.90
2023-03-17T06:41:30.545Z,99.90
2023-03-17T06:43:58.282Z,99.90
2023-03-17T06:46:26.169Z,99.90
2023-03-17T06:48:54.146Z,99.90
2023-03-17T06:51:22.059Z,99.90
2023-03-17T06:53:49.797Z,99.90
2023-03-17T06:56:29.595Z,99.90
2023-03-17T06:59:00.398Z,99.90
2023-03-17T07:01:28.713Z,99.90
2023-03-17T07:03:56.546Z,99.90
2023-03-17T07:06:24.384Z,99.90
2023-03-17T07:08:52.354Z,99.90
2023-03-17T07:11:23.565Z,99.90
2023-03-17T07:13:52.012Z,99.90
2023-03-17T07:16:21.052Z,99.90
2023-03-17T07:18:49.169Z,99.90
2023-03-17T07:21:17.356Z,99.90
2023-03-17T07:23:45.223Z,99.90
2023-03-17T07:26:13.277Z,99.90
2023-03-17T07:28:42.418Z,99.90
2023-03-17T07:31:14.033Z,99.90
2023-03-17T07:33:42.293Z,99.90
2023-03-17T07:36:10.529Z,99.90
2023-03-17T07:38:38.486Z,99.90
2023-03-17T07:41:09.791Z,99.90
2023-03-17T07:43:38.590Z,99.90
2023-03-17T07:46:08.519Z,99.90
2023-03-17T07:48:40.908Z,99.90
2023-03-17T07:51:12.296Z,99.90
2023-03-17T07:53:40.536Z,99.90
2023-03-17T07:56:08.883Z,99.90
2023-03-17T07:58:37.057Z,99.90
2023-03-17T08:01:07.950Z,99.90
2023-03-17T08:03:39.296Z,99.90
2023-03-17T08:06:09.316Z,99.90
2023-03-17T08:08:37.073Z,99.90
2023-03-17T08:11:06.469Z,97.20
2023-03-17T08:13:34.931Z,94.50
2023-03-17T08:16:02.741Z,86.90
2023-03-17T08:18:30.555Z,73.00
2023-03-17T08:21:00.003Z,69.50
2023-03-17T08:23:28.035Z,70.90
2023-03-17T08:25:58.199Z,73.00
2023-03-17T08:28:26.022Z,72.80
2023-03-17T08:30:54.327Z,72.90
2023-03-17T08:33:22.647Z,71.80
2023-03-17T08:35:50.995Z,70.70
2023-03-17T08:38:20.147Z,70.60
2023-03-17T08:40:50.073Z,67.00
2023-03-17T08:43:18.669Z,65.00
2023-03-17T08:45:46.548Z,59.30
2023-03-17T08:48:14.399Z,58.20
2023-03-17T08:50:42.246Z,57.30
2023-03-17T08:53:10.092Z,55.60
2023-03-17T08:55:39.957Z,57.10
2023-03-17T08:58:07.806Z,57.60
2023-03-17T09:00:36.024Z,58.50
2023-03-17T09:03:03.913Z,59.30
2023-03-17T09:05:32.031Z,62.50
2023-03-17T09:08:00.243Z,60.80
2023-03-17T09:10:29.106Z,59.90
2023-03-17T09:13:02.940Z,59.80
2023-03-17T09:15:31.239Z,57.80
2023-03-17T09:17:59.187Z,55.40
2023-03-17T09:20:27.093Z,54.70
2023-03-17T09:22:54.997Z,52.60
2023-03-17T09:25:23.665Z,52.00
2023-03-17T09:27:51.608Z,50.40
2023-03-17T09:30:20.837Z,46.60
2023-03-17T09:32:49.268Z,47.60
2023-03-17T09:35:17.879Z,45.00
2023-03-17T09:37:46.268Z,45.50
2023-03-17T09:40:17.641Z,45.50
2023-03-17T09:43:01.548Z,44.30
2023-03-17T09:45:36.662Z,42.60
2023-03-17T09:48:27.354Z,42.60
2023-03-17T09:50:58.906Z,41.00
2023-03-17T09:53:33.997Z,40.30
2023-03-17T09:56:05.977Z,40.70
2023-03-17T09:58:35.562Z,40.70
2023-03-17T10:01:06.123Z,41.70
2023-03-17T10:03:34.715Z,39.50
2023-03-17T10:06:25.642Z,40.30
2023-03-17T10:08:59.323Z,39.10
2023-03-17T10:11:38.381Z,38.70
2023-03-17T10:14:17.132Z,39.20
2023-03-17T10:16:53.961Z,40.00
2023-03-17T10:19:28.106Z,39.10
2023-03-17T10:22:00.500Z,39.10
2023-03-17T10:24:32.483Z,38.90
2023-03-17T10:27:04.649Z,38.40
2023-03-17T10:29:32.811Z,39.20
2023-03-17T10:32:01.887Z,38.90
2023-03-17T10:34:32.248Z,39.10
2023-03-17T10:37:02.531Z,39.30
2023-03-17T10:39:32.694Z,39.20
2023-03-17T10:42:09.012Z,40.00
2023-03-17T10:44:43.914Z,40.80
2023-03-17T10:47:31.639Z,40.70
2023-03-17T10:50:04.184Z,41.40
2023-03-17T10:52:36.776Z,38.90
2023-03-17T10:55:07.898Z,40.40
2023-03-17T10:57:38.892Z,40.90
2023-03-17T11:00:15.357Z,39.90
2023-03-17T11:02:52.470Z,39.00
2023-03-17T11:05:22.849Z,39.60
2023-03-17T11:07:51.601Z,38.90
2023-03-17T11:10:22.501Z,39.90
2023-03-17T11:12:58.717Z,40.10
2023-03-17T11:15:32.456Z,39.90
2023-03-17T11:18:03.355Z,41.70
2023-03-17T11:20:42.163Z,41.90
2023-03-17T11:23:22.329Z,42.60
2023-03-17T11:25:57.484Z,43.50
2023-03-17T11:28:29.328Z,44.40
2023-03-17T11:31:07.739Z,45.70
2023-03-17T11:33:43.794Z,45.90
2023-03-17T11:36:25.813Z,46.40
2023-03-17T11:39:00.803Z,47.40
2023-03-17T11:41:42.380Z,48.40
2023-03-17T11:44:29.922Z,49.80
2023-03-17T11:47:07.421Z,47.80
2023-03-17T11:49:39.007Z,48.90
2023-03-17T11:52:16.558Z,49.30
2023-03-17T11:54:54.165Z,52.40
2023-03-17T11:57:28.165Z,51.00
2023-03-17T11:59:59.787Z,49.90
2023-03-17T12:02:33.036Z,52.00
2023-03-17T12:05:06.662Z,51.20
2023-03-17T12:07:37.585Z,50.20
2023-03-17T12:10:17.353Z,49.70
2023-03-17T12:12:48.792Z,50.40
2023-03-17T12:15:22.517Z,51.20
2023-03-17T12:17:53.170Z,51.70
2023-03-17T12:20:28.459Z,50.80
2023-03-17T12:23:02.345Z,50.80
2023-03-17T12:25:33.708Z,51.40
2023-03-17T12:28:05.264Z,50.90
2023-03-17T12:30:41.132Z,51.00
2023-03-17T12:33:18.116Z,52.70
2023-03-17T12:35:47.244Z,52.60
2023-03-17T12:38:20.301Z,52.80
2023-03-17T12:41:07.822Z,52.60
2023-03-17T12:43:47.778Z,53.10
2023-03-17T12:46:30.676Z,53.50
2023-03-17T12:49:38.687Z,53.20
2023-03-17T12:52:20.662Z,54.20
2023-03-17T12:54:51.597Z,53.80
2023-03-17T12:57:22.118Z,53.30
2023-03-17T12:59:58.420Z,53.30
2023-03-17T13:02:38.241Z,53.10
2023-03-17T13:05:10.095Z,52.70
2023-03-17T13:07:47.625Z,52.90
2023-03-17T13:10:22.559Z,53.80
2023-03-17T13:13:06.300Z,53.80
2023-03-17T13:15:53.740Z,53.20
2023-03-17T13:18:51.518Z,53.40
2023-03-17T13:21:23.561Z,54.00
2023-03-17T13:23:58.318Z,54.30
2023-03-17T13:27:07.654Z,53.60
2023-03-17T13:29:47.241Z,53.90
2023-03-17T13:32:38.389Z,53.70
2023-03-17T13:35:19.954Z,54.10
2023-03-17T13:38:11.292Z,52.90
2023-03-17T13:40:48.703Z,53.30
2023-03-17T13:43:33.662Z,54.00
2023-03-17T13:46:22.371Z,52.30
2023-03-17T13:48:50.393Z,53.30
2023-03-17T13:51:22.424Z,53.60
2023-03-17T13:53:55.488Z,53.80
2023-03-17T13:56:27.899Z,53.30
2023-03-17T13:59:14.917Z,52.90
2023-03-17T14:01:48.276Z,53.00
2023-03-17T14:04:26.811Z,53.30
2023-03-17T14:06:57.453Z,52.60
2023-03-17T14:09:35.186Z,52.60
2023-03-17T14:12:11.940Z,52.70
2023-03-17T14:14:47.869Z,54.10
2023-03-17T14:17:20.101Z,54.30
2023-03-17T14:20:02.255Z,53.20
2023-03-17T14:22:29.973Z,53.20
2023-03-17T14:25:03.782Z,53.60
2023-03-17T14:27:34.946Z,53.60
2023-03-17T14:30:19.605Z,54.00
2023-03-17T14:32:51.587Z,53.30
2023-03-17T14:35:21.596Z,53.30
2023-03-17T14:37:49.329Z,54.20
2023-03-17T14:40:23.420Z,54.40
2023-03-17T14:42:52.715Z,54.00
2023-03-17T14:45:23.458Z,54.60
2023-03-17T14:47:52.698Z,53.50
2023-03-17T14:50:25.392Z,54.40
2023-03-17T14:52:53.561Z,54.40
2023-03-17T14:55:21.512Z,53.80
2023-03-17T14:57:53.090Z,54.40
2023-03-17T15:00:34.256Z,53.90
2023-03-17T15:03:05.399Z,54.10
2023-03-17T15:05:39.993Z,54.80
2023-03-17T15:08:40.930Z,54.20
2023-03-17T15:11:15.384Z,54.00
2023-03-17T15:13:44.475Z,53.60
2023-03-17T15:16:23.175Z,54.40
2023-03-17T15:18:58.260Z,55.90
2023-03-17T15:21:33.784Z,55.40
2023-03-17T15:24:06.422Z,55.30
2023-03-17T15:26:34.156Z,55.80
2023-03-17T15:29:03.226Z,55.40
2023-03-17T15:31:31.176Z,56.70
2023-03-17T15:33:59.765Z,57.00
2023-03-17T15:36:32.830Z,56.90
2023-03-17T15:39:01.690Z,57.80
2023-03-17T15:41:29.563Z,58.60
2023-03-17T15:43:57.293Z,58.80
2023-03-17T15:46:30.996Z,58.40
2023-03-17T15:48:59.327Z,58.40
2023-03-17T15:51:27.790Z,58.40
2023-03-17T15:53:55.636Z,58.40
2023-03-17T15:56:23.394Z,58.40
2023-03-17T15:58:52.423Z,58.40
2023-03-17T16:01:21.238Z,58.90
2023-03-17T16:03:50.480Z,58.70
2023-03-17T16:06:21.341Z,58.40
2023-03-17T16:08:50.432Z,58.30
2023-03-17T16:11:20.401Z,59.30
2023-03-17T16:13:48.606Z,58.20
2023-03-17T16:16:25.728Z,58.70
2023-03-17T16:18:54.841Z,59.60
2023-03-17T16:21:22.904Z,59.60
2023-03-17T16:23:50.937Z,58.80
2023-03-17T16:26:18.854Z,58.90
2023-03-17T16:28:47.669Z,58.90
2023-03-17T16:31:20.364Z,58.00
2023-03-17T16:33:48.670Z,58.50
2023-03-17T16:36:19.577Z,58.90
2023-03-17T16:38:48.193Z,58.20
2023-03-17T16:41:21.354Z,58.80
2023-03-17T16:43:55.422Z,58.60
2023-03-17T16:46:23.761Z,59.20
2023-03-17T16:48:51.828Z,59.30
2023-03-17T16:51:21.007Z,59.10
2023-03-17T16:53:49.088Z,59.80
2023-03-17T16:56:19.271Z,59.60
2023-03-17T16:58:47.551Z,60.20
2023-03-17T17:01:19.263Z,60.60
2023-03-17T17:03:47.738Z,60.60
2023-03-17T17:06:16.284Z,60.10
2023-03-17T17:08:47.041Z,60.50
2023-03-17T17:11:15.975Z,60.40
2023-03-17T17:13:44.974Z,61.00
2023-03-17T17:16:20.091Z,61.30
2023-03-17T17:18:48.329Z,62.40
2023-03-17T17:21:16.664Z,62.10
2023-03-17T17:23:45.902Z,62.70
2023-03-17T17:26:13.726Z,63.10
2023-03-17T17:28:41.746Z,62.70
2023-03-17T17:31:10.886Z,62.90
2023-03-17T17:33:38.775Z,63.50
2023-03-17T17:36:13.736Z,63.50
2023-03-17T17:38:41.766Z,64.00
2023-03-17T17:41:13.293Z,64.50
2023-03-17T17:43:41.725Z,64.80
2023-03-17T17:46:17.613Z,64.90
2023-03-17T17:48:45.815Z,65.20
2023-03-17T17:51:13.605Z,65.50
2023-03-17T17:53:41.895Z,65.80
2023-03-17T17:56:15.349Z,65.60
2023-03-17T17:58:43.672Z,65.30
2023-03-17T18:01:13.534Z,65.30
2023-03-17T18:03:42.861Z,65.80
2023-03-17T18:06:11.668Z,66.10
2023-03-17T18:08:39.799Z,66.50
2023-03-17T18:11:07.735Z,66.20
2023-03-17T18:13:39.006Z,66.60
2023-03-17T18:16:09.894Z,67.00
2023-03-17T18:18:40.614Z,67.40
2023-03-17T18:21:08.438Z,67.90
2023-03-17T18:23:37.266Z,67.70
2023-03-17T18:26:06.156Z,67.90
2023-03-17T18:28:36.004Z,69.00
2023-03-17T18:31:10.467Z,68.90
2023-03-17T18:33:39.776Z,68.80
2023-03-17T18:36:08.840Z,68.60
2023-03-17T18:38:37.360Z,68.30
2023-03-17T18:41:07.560Z,68.50
2023-03-17T18:43:36.659Z,68.50
2023-03-17T18:46:04.718Z,68.70
2023-03-17T18:48:32.490Z,69.10
2023-03-17T18:51:00.260Z,69.40
2023-03-17T18:53:29.993Z,69.90
2023-03-17T18:55:59.351Z,69.90
2023-03-17T18:58:27.702Z,69.90
2023-03-17T19:01:01.499Z,70.10
2023-03-17T19:03:32.185Z,70.60
2023-03-17T19:06:09.807Z,70.80
2023-03-17T19:08:37.960Z,71.60
2023-03-17T19:11:07.515Z,71.50
2023-03-17T19:13:35.781Z,73.20
2023-03-17T19:16:07.496Z,72.20
2023-03-17T19:18:36.707Z,72.80
2023-03-17T19:21:05.477Z,73.80
2023-03-17T19:23:33.828Z,73.30
2023-03-17T19:26:01.695Z,74.00
2023-03-17T19:28:29.688Z,74.00
2023-03-17T19:30:57.472Z,75.60
2023-03-17T19:33:26.635Z,75.40
2023-03-17T19:35:57.006Z,76.40
2023-03-17T19:38:25.592Z,76.80
2023-03-17T19:40:53.587Z,76.60
2023-03-17T19:43:38.967Z,76.30
2023-03-17T19:46:07.802Z,76.50
2023-03-17T19:48:37.538Z,77.20
2023-03-17T19:51:06.304Z,77.70
2023-03-17T19:53:34.221Z,77.30
2023-03-17T19:56:02.213Z,77.90
2023-03-17T19:58:30.106Z,77.40
2023-03-17T20:00:57.989Z,77.90
2023-03-17T20:03:26.414Z,77.90
2023-03-17T20:05:55.530Z,77.80
2023-03-17T20:08:24.634Z,78.80
2023-03-17T20:10:53.919Z,78.80
2023-03-17T20:13:22.568Z,81.30
2023-03-17T20:15:51.535Z,81.70
2023-03-17T20:18:19.816Z,82.80
2023-03-17T20:20:52.239Z,84.70
2023-03-17T20:23:21.735Z,86.30
2023-03-17T20:25:50.371Z,86.90
2023-03-17T20:28:18.966Z,86.80
2023-03-17T20:30:47.183Z,89.30
2023-03-17T20:33:15.626Z,90.70
2023-03-17T20:35:46.057Z,90.30
2023-03-17T20:38:14.757Z,90.50
2023-03-17T20:40:44.007Z,90.60
2023-03-17T20:43:11.886Z,90.60
2023-03-17T20:45:39.934Z,90.80
2023-03-17T20:48:10.613Z,91.40
2023-03-17T20:50:38.884Z,91.70
2023-03-17T20:53:07.380Z,92.70
2023-03-17T20:55:36.426Z,92.60
2023-03-17T20:58:05.746Z,92.70
2023-03-17T21:00:33.959Z,93.80
2023-03-17T21:03:03.858Z,94.00
2023-03-17T21:05:32.651Z,95.20
2023-03-17T21:08:00.414Z,96.60
2023-03-17T21:10:28.290Z,97.60
2023-03-17T21:12:56.068Z,98.70
2023-03-17T21:15:25.576Z,99.90
2023-03-17T21:17:53.651Z,99.90
2023-03-17T21:20:22.186Z,99.90
2023-03-17T21:22:50.060Z,99.90
2023-03-17T21:25:17.886Z,99.90
2023-03-17T21:27:46.098Z,99.90
2023-03-17T21:30:15.795Z,99.90
2023-03-17T21:32:44.974Z,99.90
2023-03-17T21:35:12.878Z,99.90
2023-03-17T21:37:40.710Z,99.90
2023-03-17T21:40:10.624Z,99.90
2023-03-17T21:42:38.407Z,99.90
2023-03-17T21:45:07.074Z,99.90
2023-03-17T21:47:36.314Z,99.90
2023-03-17T21:50:05.979Z,99.90
2023-03-17T21:52:33.803Z,99.90
2023-03-17T21:55:01.525Z,99.90
2023-03-17T21:57:29.698Z,99.90
2023-03-17T21:59:57.491Z,99.90
2023-03-17T22:02:25.335Z,99.90
2023-03-17T22:04:53.221Z,99.90
2023-03-17T22:07:23.288Z,99.90
2023-03-17T22:09:53.910Z,99.90
2023-03-17T22:12:21.949Z,99.90
2023-03-17T22:14:49.787Z,99.90
2023-03-17T22:17:17.746Z,99.90
2023-03-17T22:19:45.532Z,99.90
2023-03-17T22:22:13.276Z,99.90
2023-03-17T22:24:42.805Z,99.90
2023-03-17T22:27:10.583Z,99.90
2023-03-17T22:29:38.350Z,99.90
2023-03-17T22:32:06.962Z,99.90
2023-03-17T22:34:34.879Z,99.90
2023-03-17T22:37:02.620Z,99.90
2023-03-17T22:39:30.362Z,99.90
2023-03-17T22:41:59.410Z,99.90
2023-03-17T22:44:27.191Z,99.90
2023-03-17T22:46:54.927Z,99.90
2023-03-17T22:49:23.677Z,99.90
2023-03-17T22:51:51.983Z,99.90
2023-03-17T22:54:19.891Z,99.90
2023-03-17T22:56:48.518Z,99.90
2023-03-17T22:59:17.587Z,99.90
2023-03-17T23:01:45.864Z,99.90
2023-03-17T23:04:14.110Z,99.90
2023-03-17T23:06:42.314Z,99.90
2023-03-17T23:09:10.140Z,99.90
2023-03-17T23:11:38.827Z,99.90
2023-03-17T23:14:06.625Z,99.90
2023-03-17T23:16:35.753Z,99.90
2023-03-17T23:19:03.641Z,99.90
2023-03-17T23:21:34.120Z,99.90
2023-03-17T23:24:03.511Z,99.90
2023-03-17T23:26:32.102Z,99.90
2023-03-17T23:28:59.922Z,99.90
2023-03-17T23:31:27.640Z,99.90
2023-03-17T23:33:56.842Z,99.90
2023-03-17T23:36:24.605Z,99.90
2023-03-17T23:38:53.100Z,99.90
2023-03-17T23:41:21.225Z,99.90
2023-03-17T23:43:49.063Z,99.90
2023-03-17T23:46:17.233Z,99.90
2023-03-17T23:48:45.210Z,99.90
2023-03-17T23:51:14.921Z,99.90
2023-03-17T23:53:43.025Z,99.90
2023-03-17T23:56:13.061Z,99.90
2023-03-17T23:58:42.450Z,99.90
